Rancho Mirage, California
Current Conditions -  °F | °C
As of 3:53 AM on Friday 24 Oct 2014 (Local Time) from KPSP Reporting Station
Clear Clear  
Wind Chill: 75°   Ceiling: Unl
Heat Index: 75°   Visibility: 10mi
Dew Point: 33°   Wind: 7mph
Humidity: 22%   Direction: 320°NW
Pressure: 29.95"   Gusts: NA
Location:  33.77°N, 116.44°W
Report Text: KPSP 241053Z 32006KT 10SM CLR 24/01 A2995 RMK AO2 SLP138 T02390006 $
Loading
Personal Weather Stations






























Interactive Weather Map
Tropical Storm Tracking
New forecast layout! Learn more

10-Day Weather Forecast

Advertisements
Track Severe Weather on mobile